Share

Milnor, ND

1:02 AM CDT on April 25, 2014 (GMT -0500)
Gwinner-melroe (KGWR) Elev 1266 ft | 46.22 °N, 97.64 °W | Change Station

Current weather conditions updated 7 minutes ago

Clear
Clear
34 °F
Feels Like 27 °F
N
8
Wind Variable Wind from WSW
Sunrise 6:25 AM
Sunset 8:30 PM
Moon Waning Crescent

Today is forecast to be Warmer than yesterday.

Pressure 29.74 in
Visibility 10.0 miles
Clouds Clear
Windchill 27 °F
Dew Point 34 °F
Humidity 100%
Rainfall 0.00 in
Snow Depth Not available.
UV 0 out of 16
Pollen 6.80 out of 12
Air Quality Not available.
Flu Activity Sporadic
METAR KGWR 250555Z AUTO 25007KT 10SM CLR 01/01 A2974 RMK A01 P000

More Conditions Fewer Conditions

Pressure 29.74 in
Visibility 10.0 miles
Clouds Clear
Windchill 27 °F
Dew Point 34 °F
Humidity 100%
Rainfall 0.00 in
Snow Depth Not available.
UV 0 out of 16
Pollen 6.80 out of 12
Air Quality Not available.
Flu Activity Sporadic
METAR KGWR 250555Z AUTO 25007KT 10SM CLR 01/01 A2974 RMK A01 P000

More Conditions Fewer Conditions

10-Day Weather Forecast

Almanac

Astronomy

Apr. 25, 2014 Rise Set
Actual Time 6:25 AM CDT 8:30 PM CDT
Civil Twilight 5:53 AM CDT 9:03 PM CDT
Nautical Twilight 5:12 AM CDT 9:43 PM CDT
Astronomical Twilight 4:28 AM CDT 10:28 PM CDT
Moon 4:28 AM CDT 4:42 PM CDT
Length of Visible Light 15h 10m
Length of Day
14h 04m
Tomorrow will be 2m 58s longer.
Waning Crescent, 19% of the Moon is Illuminated
Today
Waning Crescent
Apr 29
New
May 6
First Quarter
May 14
Full
May 21
Last Quarter

Today's Extremes

State Highs State Lows

Community

  • Deer in evening light
    Deer in evening light
  • Critter
    Critter
  • Jone Runs Falls
    Jone Runs Falls
  • Easter in Shenandoah National Park
    Easter in Shenandoah National Park
  • Sunset at Apalachicola Bay, Florida
    Sunset at Apalachicola Bay, Florida

WunderPhotos

Upload Photos

1,704,865 photos uploaded!

WunderBlogs® & News

Nearby

Snow Depth

Station Depth Elevation
No new snow has been reported.

Coastal Water Temperatures

Place Temperature
No Stations Reporting

Earthquake Activity

City Distance Mag. Time & Date
No recent earthquake activity has been reported nearby.
Minimum magnitude displayed is 2.5.

Nearby Weather Stations

Station Location Temp. Windchill Dew Point Humidity Wind Precip. Elev Updated Type
Open Plains ND, Wyndmere, ND 39.6 °F 37 °F 37 °F 91% NW  at  4.2 mph - / hr 1056 ft 12:55 AM CDT Normal

Show More Stations Show Fewer Stations

What do you think?

We're not finished. Please let us know what you like, what you don't like, and what you are still missing.